Galileo — SX2040 — position and weather

sailwx.info

Track history (hours):
 
Tides and Currents Weather Stations Pressure Air Temp Water Temp Dewpoint Dewpoint Depression Visibility Wind Speed Wind Dir Waves Ship Positions

Galileo

Last reported at 2016-May-05 08:33 UTC. Time now 2016-May-05 21:56 UTC.
Position N 37°25' E 024°58'.

Length 40 m; draft 3 m.

Type: Passenger vessel. MMSI: 239299000.

Date/timePositionNaut miles runAvg speedWind from/ knotsBaromVisibWave heightAir tempDewpointWater temp
2016-May-05 08:33N 37°25' E 024°58'0 0.0
2016-May-05 07:30N 37°25' E 024°58'0 0.4
2016-May-05 06:33N 37°25' E 024°59'9 9.1
2016-May-05 05:34N 37°26' E 025°10'8 7.7
2016-May-05 04:33N 37°28' E 025°20'0 0.0
2016-May-05 03:33N 37°28' E 025°20'0 0.0
2016-May-05 02:33N 37°28' E 025°20'0 0.0
2016-May-05 01:33N 37°28' E 025°20'0 0.0
2016-May-05 00:32N 37°28' E 025°20'0 0.0
2016-May-04 23:33N 37°28' E 025°20'0 0.0
2016-May-04 22:33N 37°28' E 025°20'0 0.0
2016-May-04 21:32N 37°28' E 025°20'0 0.0
2016-May-04 20:32N 37°28' E 025°20'0 0.0
2016-May-04 19:34N 37°28' E 025°20'0 0.0
2016-May-04 18:33N 37°28' E 025°20'0 0.0
2016-May-04 17:32N 37°28' E 025°20'0 0.0
2016-May-04 16:32N 37°28' E 025°20'0 0.0
2016-May-04 15:33N 37°28' E 025°20'0 0.0
2016-May-04 14:33N 37°28' E 025°20'0 0.0
2016-May-04 13:32N 37°28' E 025°20'0 0.0
2016-May-04 12:33N 37°28' E 025°20'0 0.0
2016-May-04 11:32N 37°28' E 025°20'3 2.8
2016-May-04 10:34N 37°26' E 025°17'3 2.5
2016-May-04 09:33N 37°24' E 025°15'0 0.0
2016-May-04 08:33N 37°24' E 025°15'0 0.0
2016-May-04 07:34N 37°24' E 025°15'0 0.0
2016-May-04 06:33N 37°24' E 025°15'0 0.0
2016-May-04 05:33N 37°24' E 025°15'2 1.7
2016-May-04 04:33N 37°25' E 025°17'9 9.1
2016-May-04 03:34N 37°17' E 025°13'10 9.9
2016-May-04 02:33N 37°08' E 025°08'2 2.4
2016-May-04 01:33N 37°05' E 025°09'0 0.0
2016-May-04 00:33N 37°05' E 025°09'0 0.0
2016-May-03 23:33N 37°05' E 025°09'0 0.0
2016-May-03 22:33N 37°05' E 025°09'0 0.0
2016-May-03 21:32N 37°05' E 025°09'0 0.0
2016-May-03 20:32N 37°05' E 025°09'0 0.0
2016-May-03 19:32N 37°05' E 025°09'0 0.0
2016-May-03 18:33N 37°05' E 025°09'0 0.0
2016-May-03 17:31N 37°05' E 025°09'0 0.0
2016-May-03 16:33N 37°05' E 025°09'0 0.0
2016-May-03 15:32N 37°05' E 025°09'0 0.0
2016-May-03 14:33N 37°05' E 025°09'0 0.0
2016-May-03 13:32N 37°05' E 025°09'0 0.0
2016-May-03 12:32N 37°05' E 025°09'0 0.0
2016-May-03 11:33N 37°05' E 025°09'0 0.0
2016-May-03 10:31N 37°05' E 025°09'0 0.0
2016-May-03 09:32N 37°05' E 025°09'0 0.0
2016-May-03 08:33N 37°05' E 025°09'0 0.0
2016-May-03 07:32N 37°05' E 025°09'0 0.0
2016-May-03 06:33N 37°05' E 025°09'0 0.0
2016-May-03 05:33N 37°05' E 025°09'0 0.0
2016-May-03 04:33N 37°05' E 025°09'0 0.0
2016-May-03 03:32N 37°05' E 025°09'0 0.0
2016-May-03 02:33N 37°05' E 025°09'0 0.0
2016-May-03 01:32N 37°05' E 025°09'0 0.0
2016-May-03 00:32N 37°05' E 025°09'69 1.4
2016-Apr-30 23:33N 37°21' E 023°44'1010.3
2016-Apr-30 22:32N 37°27' E 023°33'6 6.0
2016-Apr-30 21:33N 37°30' E 023°27'0 0.0
2016-Apr-30 20:33N 37°30' E 023°27'0 0.0
2016-Apr-30 19:33N 37°30' E 023°27'0 0.0
2016-Apr-30 18:33N 37°30' E 023°27'0 0.0
2016-Apr-30 17:33N 37°30' E 023°27'2 2.1
2016-Apr-30 16:33N 37°32' E 023°25'1010.2
2016-Apr-30 15:33N 37°40' E 023°32'1010.2
2016-Apr-30 14:34N 37°50' E 023°36'6 6.5
2016-Apr-30 13:33N 37°56' E 023°39'0 0.0
2016-Apr-30 12:33N 37°56' E 023°39'0 0.0
2016-Apr-30 11:33N 37°56' E 023°39'0 0.0
2016-Apr-30 10:34N 37°56' E 023°39'0 0.0
2016-Apr-30 09:33N 37°56' E 023°39'0 0.0
2016-Apr-30 08:33N 37°56' E 023°39'0 0.0
2016-Apr-30 07:33N 37°56' E 023°39'0 0.0
2016-Apr-30 06:33N 37°56' E 023°39'0 0.0
2016-Apr-30 05:34N 37°56' E 023°39'0 0.0
2016-Apr-30 04:34N 37°56' E 023°39'0 0.0
2016-Apr-30 03:34N 37°56' E 023°39'0 0.0
2016-Apr-30 02:34N 37°56' E 023°39'0 0.0
2016-Apr-30 01:33N 37°56' E 023°39'0 0.0
2016-Apr-30 00:34N 37°56' E 023°39'0 0.0
2016-Apr-29 23:33N 37°56' E 023°39'0 0.0
2016-Apr-29 22:34N 37°56' E 023°39'0 0.0
2016-Apr-29 21:34N 37°56' E 023°39'0 0.0
2016-Apr-29 20:34N 37°56' E 023°39'0 0.0
2016-Apr-29 19:33N 37°56' E 023°39'0 0.0
2016-Apr-29 18:33N 37°56' E 023°39'0 0.0
2016-Apr-29 17:33N 37°56' E 023°39'0 0.0
2016-Apr-29 16:34N 37°56' E 023°39'3 2.6
2016-Apr-29 15:33N 37°54' E 023°40'9 9.5
2016-Apr-29 14:33N 37°45' E 023°45'10 9.9
2016-Apr-29 13:32N 37°39' E 023°55'  
2016-Apr-26 22:33N 37°08' E 024°58'1110.0
2016-Apr-26 21:25N 37°20' E 025°00'7 7.7
2016-Apr-26 20:28N 37°26' E 024°57'0 0.1
2016-Apr-26 19:28N 37°26' E 024°57'0 0.0
2016-Apr-26 18:04N 37°26' E 024°57'0 0.0
2016-Apr-26 15:32N 37°26' E 024°57'0 0.0
2016-Apr-26 14:29N 37°26' E 024°57'0 0.0
2016-Apr-26 13:17N 37°26' E 024°57'0 0.0
2016-Apr-26 12:24N 37°26' E 024°57'0 0.0
2016-Apr-26 11:17N 37°26' E 024°57'0 0.0
2016-Apr-26 10:29N 37°26' E 024°57'0 0.0
2016-Apr-26 09:17N 37°26' E 024°57'2 3.0
2016-Apr-26 08:31N 37°26' E 024°60'9 8.9
2016-Apr-26 07:34N 37°27' E 025°10'7 7.4
2016-Apr-26 06:33N 37°28' E 025°20'0 0.0
2016-Apr-26 05:32N 37°28' E 025°20'0 0.0
2016-Apr-26 04:29N 37°28' E 025°20'0 0.0
2016-Apr-26 03:32N 37°28' E 025°20'0 0.0
2016-Apr-26 02:33N 37°28' E 025°20'0 0.0
2016-Apr-26 01:32N 37°28' E 025°20'0 0.0
2016-Apr-26 00:33N 37°28' E 025°20'0 0.0
2016-Apr-25 23:32N 37°28' E 025°20'0 0.0
2016-Apr-25 22:33N 37°28' E 025°20'0 0.0
2016-Apr-25 21:33N 37°28' E 025°20'0 0.0
2016-Apr-25 20:33N 37°28' E 025°20'0 0.0
2016-Apr-25 19:32N 37°28' E 025°20'0 0.0
2016-Apr-25 18:33N 37°28' E 025°20'0 0.0
2016-Apr-25 17:33N 37°28' E 025°20'0 0.0
2016-Apr-25 16:33N 37°28' E 025°20'0 0.0
2016-Apr-25 15:30N 37°28' E 025°20'0 0.0
2016-Apr-25 14:32N 37°28' E 025°20'0 0.0
2016-Apr-25 13:33N 37°28' E 025°20'0 0.0
2016-Apr-25 12:26N 37°28' E 025°20'0 0.0
2016-Apr-25 11:31N 37°28' E 025°20'0 0.0
2016-Apr-25 10:33N 37°28' E 025°20'2 1.5
2016-Apr-25 09:33N 37°27' E 025°18'4 3.7
2016-Apr-25 08:34N 37°24' E 025°15'  
Track history (hours):
 
Tides and Currents Weather Stations Pressure Air Temp Water Temp Dewpoint Dewpoint Depression Visibility Wind Speed Wind Dir Waves Ship Positions

Galileo

Last reported at 2016-May-05 08:33 UTC. Time now 2016-May-05 21:56 UTC.
Position N 37°25' E 024°58'.

Length 40 m; draft 3 m.

Type: Passenger vessel. MMSI: 239299000.

Date/timePositionNaut miles runAvg speedWind from/ knotsBaromVisibWave heightAir tempDewpointWater temp
2016-May-05 08:33N 37°25' E 024°58'0 0.0
2016-May-05 07:30N 37°25' E 024°58'0 0.4
2016-May-05 06:33N 37°25' E 024°59'9 9.1
2016-May-05 05:34N 37°26' E 025°10'8 7.7
2016-May-05 04:33N 37°28' E 025°20'0 0.0
2016-May-05 03:33N 37°28' E 025°20'0 0.0
2016-May-05 02:33N 37°28' E 025°20'0 0.0
2016-May-05 01:33N 37°28' E 025°20'0 0.0
2016-May-05 00:32N 37°28' E 025°20'0 0.0
2016-May-04 23:33N 37°28' E 025°20'0 0.0
2016-May-04 22:33N 37°28' E 025°20'0 0.0
2016-May-04 21:32N 37°28' E 025°20'0 0.0
2016-May-04 20:32N 37°28' E 025°20'0 0.0
2016-May-04 19:34N 37°28' E 025°20'0 0.0
2016-May-04 18:33N 37°28' E 025°20'0 0.0
2016-May-04 17:32N 37°28' E 025°20'0 0.0
2016-May-04 16:32N 37°28' E 025°20'0 0.0
2016-May-04 15:33N 37°28' E 025°20'0 0.0
2016-May-04 14:33N 37°28' E 025°20'0 0.0
2016-May-04 13:32N 37°28' E 025°20'0 0.0
2016-May-04 12:33N 37°28' E 025°20'0 0.0
2016-May-04 11:32N 37°28' E 025°20'3 2.8
2016-May-04 10:34N 37°26' E 025°17'3 2.5
2016-May-04 09:33N 37°24' E 025°15'0 0.0
2016-May-04 08:33N 37°24' E 025°15'0 0.0
2016-May-04 07:34N 37°24' E 025°15'0 0.0
2016-May-04 06:33N 37°24' E 025°15'0 0.0
2016-May-04 05:33N 37°24' E 025°15'2 1.7
2016-May-04 04:33N 37°25' E 025°17'9 9.1
2016-May-04 03:34N 37°17' E 025°13'10 9.9
2016-May-04 02:33N 37°08' E 025°08'2 2.4
2016-May-04 01:33N 37°05' E 025°09'0 0.0
2016-May-04 00:33N 37°05' E 025°09'0 0.0
2016-May-03 23:33N 37°05' E 025°09'0 0.0
2016-May-03 22:33N 37°05' E 025°09'0 0.0
2016-May-03 21:32N 37°05' E 025°09'0 0.0
2016-May-03 20:32N 37°05' E 025°09'0 0.0
2016-May-03 19:32N 37°05' E 025°09'0 0.0
2016-May-03 18:33N 37°05' E 025°09'0 0.0
2016-May-03 17:31N 37°05' E 025°09'0 0.0
2016-May-03 16:33N 37°05' E 025°09'0 0.0
2016-May-03 15:32N 37°05' E 025°09'0 0.0
2016-May-03 14:33N 37°05' E 025°09'0 0.0
2016-May-03 13:32N 37°05' E 025°09'0 0.0
2016-May-03 12:32N 37°05' E 025°09'0 0.0
2016-May-03 11:33N 37°05' E 025°09'0 0.0
2016-May-03 10:31N 37°05' E 025°09'0 0.0
2016-May-03 09:32N 37°05' E 025°09'0 0.0
2016-May-03 08:33N 37°05' E 025°09'0 0.0
2016-May-03 07:32N 37°05' E 025°09'0 0.0
2016-May-03 06:33N 37°05' E 025°09'0 0.0
2016-May-03 05:33N 37°05' E 025°09'0 0.0
2016-May-03 04:33N 37°05' E 025°09'0 0.0
2016-May-03 03:32N 37°05' E 025°09'0 0.0
2016-May-03 02:33N 37°05' E 025°09'0 0.0
2016-May-03 01:32N 37°05' E 025°09'0 0.0
2016-May-03 00:32N 37°05' E 025°09'69 1.4
2016-Apr-30 23:33N 37°21' E 023°44'1010.3
2016-Apr-30 22:32N 37°27' E 023°33'6 6.0
2016-Apr-30 21:33N 37°30' E 023°27'0 0.0
2016-Apr-30 20:33N 37°30' E 023°27'0 0.0
2016-Apr-30 19:33N 37°30' E 023°27'0 0.0
2016-Apr-30 18:33N 37°30' E 023°27'0 0.0
2016-Apr-30 17:33N 37°30' E 023°27'2 2.1
2016-Apr-30 16:33N 37°32' E 023°25'1010.2
2016-Apr-30 15:33N 37°40' E 023°32'1010.2
2016-Apr-30 14:34N 37°50' E 023°36'6 6.5
2016-Apr-30 13:33N 37°56' E 023°39'0 0.0
2016-Apr-30 12:33N 37°56' E 023°39'0 0.0
2016-Apr-30 11:33N 37°56' E 023°39'0 0.0
2016-Apr-30 10:34N 37°56' E 023°39'0 0.0
2016-Apr-30 09:33N 37°56' E 023°39'0 0.0
2016-Apr-30 08:33N 37°56' E 023°39'0 0.0
2016-Apr-30 07:33N 37°56' E 023°39'0 0.0
2016-Apr-30 06:33N 37°56' E 023°39'0 0.0
2016-Apr-30 05:34N 37°56' E 023°39'0 0.0
2016-Apr-30 04:34N 37°56' E 023°39'0 0.0
2016-Apr-30 03:34N 37°56' E 023°39'0 0.0
2016-Apr-30 02:34N 37°56' E 023°39'0 0.0
2016-Apr-30 01:33N 37°56' E 023°39'0 0.0
2016-Apr-30 00:34N 37°56' E 023°39'0 0.0
2016-Apr-29 23:33N 37°56' E 023°39'0 0.0
2016-Apr-29 22:34N 37°56' E 023°39'0 0.0
2016-Apr-29 21:34N 37°56' E 023°39'0 0.0
2016-Apr-29 20:34N 37°56' E 023°39'0 0.0
2016-Apr-29 19:33N 37°56' E 023°39'0 0.0
2016-Apr-29 18:33N 37°56' E 023°39'0 0.0
2016-Apr-29 17:33N 37°56' E 023°39'0 0.0
2016-Apr-29 16:34N 37°56' E 023°39'3 2.6
2016-Apr-29 15:33N 37°54' E 023°40'9 9.5
2016-Apr-29 14:33N 37°45' E 023°45'10 9.9
2016-Apr-29 13:32N 37°39' E 023°55'  
2016-Apr-26 22:33N 37°08' E 024°58'1110.0
2016-Apr-26 21:25N 37°20' E 025°00'7 7.7
2016-Apr-26 20:28N 37°26' E 024°57'0 0.1
2016-Apr-26 19:28N 37°26' E 024°57'0 0.0
2016-Apr-26 18:04N 37°26' E 024°57'0 0.0
2016-Apr-26 15:32N 37°26' E 024°57'0 0.0
2016-Apr-26 14:29N 37°26' E 024°57'0 0.0
2016-Apr-26 13:17N 37°26' E 024°57'0 0.0
2016-Apr-26 12:24N 37°26' E 024°57'0 0.0
2016-Apr-26 11:17N 37°26' E 024°57'0 0.0
2016-Apr-26 10:29N 37°26' E 024°57'0 0.0
2016-Apr-26 09:17N 37°26' E 024°57'2 3.0
2016-Apr-26 08:31N 37°26' E 024°60'9 8.9
2016-Apr-26 07:34N 37°27' E 025°10'7 7.4
2016-Apr-26 06:33N 37°28' E 025°20'0 0.0
2016-Apr-26 05:32N 37°28' E 025°20'0 0.0
2016-Apr-26 04:29N 37°28' E 025°20'0 0.0
2016-Apr-26 03:32N 37°28' E 025°20'0 0.0
2016-Apr-26 02:33N 37°28' E 025°20'0 0.0
2016-Apr-26 01:32N 37°28' E 025°20'0 0.0
2016-Apr-26 00:33N 37°28' E 025°20'0 0.0
2016-Apr-25 23:32N 37°28' E 025°20'0 0.0
2016-Apr-25 22:33N 37°28' E 025°20'0 0.0
2016-Apr-25 21:33N 37°28' E 025°20'0 0.0
2016-Apr-25 20:33N 37°28' E 025°20'0 0.0
2016-Apr-25 19:32N 37°28' E 025°20'0 0.0
2016-Apr-25 18:33N 37°28' E 025°20'0 0.0
2016-Apr-25 17:33N 37°28' E 025°20'0 0.0
2016-Apr-25 16:33N 37°28' E 025°20'0 0.0
2016-Apr-25 15:30N 37°28' E 025°20'0 0.0
2016-Apr-25 14:32N 37°28' E 025°20'0 0.0
2016-Apr-25 13:33N 37°28' E 025°20'0 0.0
2016-Apr-25 12:26N 37°28' E 025°20'0 0.0
2016-Apr-25 11:31N 37°28' E 025°20'0 0.0
2016-Apr-25 10:33N 37°28' E 025°20'2 1.5
2016-Apr-25 09:33N 37°27' E 025°18'4 3.7
2016-Apr-25 08:34N 37°24' E 025°15'  

Dump ship's entire track history